Harperville, Mississippi
Current Conditions -  °F | °C
As of 3:54 AM on Thursday 18 Dec 2014 (Local Time) from KJAN Reporting Station
Overcast Overcast  
Wind Chill: 43°   Ceiling: 6500
Heat Index: 45°   Visibility: 10mi
Dew Point: 40°   Wind: 5mph
Humidity: 82%   Direction: 50°NE
Pressure: 30.2"   Gusts: NA
Location:  32.49°N, 89.49°W
Report Text: KJAN 180954Z AUTO 05004KT 10SM BKN065 OVC075 07/04 A3020 RMK AO2 SLP227 T00720044
Loading
Personal Weather Stations






























Interactive Weather Map New forecast layout! Learn more

10-Day Weather Forecast

Advertisements
Track Severe Weather on mobile